Time;durP1;ratioP1;P1;durP2;ratioP2;P2;SDS_P1;SDS_P2;PMS_P1;PMS_P2;Temp;Humidity;BMP_temperature;BMP_pressure;BME280_temperature;BME280_humidity;BME280_pressure;Samples;Min_cycle;Max_cycle;Signal;HPM_P1;HPM_P2
2022/08/02 00:01:18;;;;;;;2.15;1.40;;;;;;;14.34;100.00;101689.72;6296074;28;20139;-76
2022/08/02 00:04:19;;;;;;;6.32;1.40;;;;;;;14.31;100.00;101687.25;6295748;28;20416;-75
2022/08/02 00:07:21;;;;;;;3.10;1.20;;;;;;;14.24;100.00;101690.31;6296383;28;20063;-75
2022/08/02 00:10:22;;;;;;;1.90;1.48;;;;;;;14.23;100.00;101683.31;6296258;28;20053;-75
2022/08/02 00:13:23;;;;;;;3.95;1.60;;;;;;;14.19;100.00;101686.13;6295985;28;20044;-75
2022/08/02 00:16:26;;;;;;;2.85;1.40;;;;;;;14.16;100.00;101680.13;6295734;28;20416;-76
2022/08/02 00:19:28;;;;;;;5.40;1.80;;;;;;;14.09;100.00;101690.19;6296152;28;20049;-75
2022/08/02 00:22:29;;;;;;;3.63;1.38;;;;;;;14.10;100.00;101689.25;6295900;28;20048;-75
2022/08/02 00:25:31;;;;;;;1.67;1.17;;;;;;;14.05;100.00;101680.72;6295923;28;20048;-76
2022/08/02 00:28:32;;;;;;;6.80;1.50;;;;;;;14.00;100.00;101681.91;6295815;28;20059;-75
2022/08/02 00:31:35;;;;;;;2.75;1.50;;;;;;;13.95;100.00;101682.16;6295960;28;20059;-75
2022/08/02 00:34:36;;;;;;;1.90;1.42;;;;;;;13.91;100.00;101673.50;6294777;28;20060;-75
2022/08/02 00:37:41;;;;;;;2.03;1.65;;;;;;;13.93;100.00;101678.72;6314198;28;20047;-75
2022/08/02 00:40:47;;;;;;;1.90;1.10;;;;;;;13.91;100.00;101670.88;6309346;28;20052;-75
2022/08/02 00:43:50;;;;;;;5.75;1.55;;;;;;;13.91;100.00;101683.22;6313665;28;20044;-75
2022/08/02 00:46:52;;;;;;;5.50;1.58;;;;;;;13.88;100.00;101678.09;6325273;28;20396;-75
2022/08/02 00:49:54;;;;;;;5.82;1.50;;;;;;;13.86;100.00;101677.34;6324923;28;20048;-75
2022/08/02 00:52:56;;;;;;;4.38;1.83;;;;;;;13.77;100.00;101678.66;6314815;28;20052;-75
2022/08/02 00:55:57;;;;;;;5.32;1.45;;;;;;;13.79;100.00;101668.88;6318751;28;20051;-75
2022/08/02 00:58:59;;;;;;;3.38;1.33;;;;;;;13.76;100.00;101669.00;6324974;28;20416;-74
2022/08/02 01:02:01;;;;;;;2.20;1.60;;;;;;;13.73;100.00;101679.75;6324386;28;20048;-74
2022/08/02 01:05:03;;;;;;;4.60;1.63;;;;;;;13.66;100.00;101683.63;6324656;28;20048;-74
2022/08/02 01:08:04;;;;;;;4.95;2.33;;;;;;;13.61;100.00;101680.38;6324331;28;20047;-74
2022/08/02 01:11:06;;;;;;;3.20;1.30;;;;;;;13.55;100.00;101688.63;6320981;28;20044;-74
2022/08/02 01:14:10;;;;;;;2.47;1.40;;;;;;;13.47;100.00;101680.22;6315413;28;20408;-74
2022/08/02 01:17:19;;;;;;;4.30;1.60;;;;;;;13.43;100.00;101684.81;6324291;28;20052;-74
2022/08/02 01:20:49;;;;;;;3.40;1.77;;;;;;;13.43;100.00;101684.81;6324165;28;20051;-74
2022/08/02 01:23:57;;;;;;;;;;;;;;;13.37;100.00;101678.06;6324644;28;20047;-74
2022/08/02 01:27:11;;;;;;;3.30;1.80;;;;;;;13.38;100.00;101686.81;6323906;28;19926;-74
2022/08/02 01:30:14;;;;;;;3.10;1.20;;;;;;;13.35;100.00;101689.59;6323814;28;20051;-74
2022/08/02 01:33:19;;;;;;;5.72;1.67;;;;;;;13.37;100.00;101688.63;6323797;28;20051;-74
2022/08/02 01:36:23;;;;;;;3.97;1.55;;;;;;;13.40;100.00;101699.03;6323768;28;20044;-74
2022/08/02 01:39:27;;;;;;;3.97;1.48;;;;;;;13.36;100.00;101686.06;6323622;28;20071;-74
2022/08/02 01:42:31;;;;;;;4.05;1.75;;;;;;;13.33;100.00;101686.19;6323764;28;20052;-75
2022/08/02 01:45:35;;;;;;;3.10;1.45;;;;;;;13.34;100.00;101685.25;6323353;28;20410;-74
2022/08/02 01:48:37;;;;;;;4.07;1.67;;;;;;;13.29;100.00;101685.50;6323633;28;20044;-74
2022/08/02 01:55:05;;;;;;;6.10;2.10;;;;;;;13.17;100.00;101692.22;6322958;28;20052;-74
2022/08/02 01:58:08;;;;;;;4.30;1.45;;;;;;;13.10;100.00;101692.56;6323267;28;20044;-74
2022/08/02 02:01:13;;;;;;;8.10;1.75;;;;;;;13.04;100.00;101695.53;6323055;28;20051;-74
2022/08/02 02:04:16;;;;;;;3.85;1.60;;;;;;;12.98;100.00;101687.88;6322837;28;20048;-74
2022/08/02 02:07:20;;;;;;;2.28;1.25;;;;;;;12.92;100.00;101686.41;6323020;28;20044;-74
2022/08/02 02:10:25;;;;;;;5.60;1.77;;;;;;;12.92;100.00;101681.97;6322567;28;20051;-74
2022/08/02 02:13:28;;;;;;;2.08;1.50;;;;;;;12.87;100.00;101673.44;6323007;28;20055;-74
2022/08/02 02:16:33;;;;;;;1.83;1.30;;;;;;;12.79;100.00;101680.00;6322517;28;20419;-74
2022/08/02 02:19:36;;;;;;;7.07;1.88;;;;;;;12.79;100.00;101672.94;6323348;28;20051;-74
2022/08/02 02:22:37;;;;;;;3.85;2.08;;;;;;;12.75;100.00;101674.00;6322579;28;20051;-74
2022/08/02 02:25:41;;;;;;;4.25;1.58;;;;;;;12.74;100.00;101674.94;6322358;28;20491;-74
2022/08/02 02:28:46;;;;;;;3.47;1.40;;;;;;;12.71;100.00;101667.16;6322388;28;20055;-74
2022/08/02 02:31:52;;;;;;;2.88;1.52;;;;;;;12.68;100.00;101659.44;6322117;28;20051;-74
2022/08/02 02:34:55;;;;;;;4.28;1.77;;;;;;;12.64;100.00;101649.94;6322474;28;20044;-74
2022/08/02 02:38:00;;;;;;;2.45;1.60;;;;;;;12.63;100.00;101650.88;6322083;28;20048;-74
2022/08/02 02:41:05;;;;;;;2.83;1.50;;;;;;;12.61;100.00;101644.81;6322122;28;20404;-74
2022/08/02 02:44:10;;;;;;;2.63;1.52;;;;;;;12.58;100.00;101639.66;6322307;28;20059;-74
2022/08/02 02:47:16;;;;;;;4.10;1.65;;;;;;;12.54;100.00;101640.78;6322218;28;20048;-74
2022/08/02 02:50:25;;;;;;;1.80;1.27;;;;;;;12.57;100.00;101640.59;6314267;28;20048;-75
2022/08/02 02:53:28;;;;;;;2.28;1.58;;;;;;;12.50;100.00;101636.56;6296824;28;20044;-75
2022/08/02 02:56:30;;;;;;;5.32;1.38;;;;;;;12.51;100.00;101636.47;6296995;28;20055;-74
2022/08/02 02:59:32;;;;;;;3.72;1.50;;;;;;;12.48;100.00;101627.84;6279809;28;20056;-75
2022/08/02 03:02:37;;;;;;;2.97;2.00;;;;;;;12.47;100.00;101627.00;6271708;28;20072;-74
2022/08/02 03:05:38;;;;;;;4.47;1.58;;;;;;;12.45;100.00;101628.88;6271434;28;20045;-74
2022/08/02 03:08:40;;;;;;;4.15;1.50;;;;;;;12.47;100.00;101631.44;6271607;28;20060;-74
2022/08/02 03:11:42;;;;;;;6.78;1.60;;;;;;;12.41;100.00;101638.69;6271955;28;20045;-74
2022/08/02 03:14:44;;;;;;;8.23;1.83;;;;;;;12.38;100.00;101637.97;6271623;28;20056;-74
2022/08/02 03:17:47;;;;;;;3.58;1.13;;;;;;;12.40;100.00;101642.28;6271844;28;20049;-74
2022/08/02 03:20:48;;;;;;;2.15;1.48;;;;;;;12.37;100.00;101634.50;6271605;28;20052;-74
2022/08/02 03:23:50;;;;;;;2.33;1.52;;;;;;;12.42;100.00;101627.22;6271313;28;20044;-74
2022/08/02 03:26:52;;;;;;;3.22;1.60;;;;;;;12.40;100.00;101623.81;6271426;28;20044;-74
2022/08/02 03:29:53;;;;;;;3.30;1.65;;;;;;;12.41;100.00;101627.31;6271042;28;20044;-74
2022/08/02 03:32:56;;;;;;;3.75;1.63;;;;;;;12.39;100.00;101631.78;6271246;28;20428;-74
2022/08/02 03:36:01;;;;;;;3.30;1.48;;;;;;;12.41;100.00;101624.66;6271007;28;20393;-74
2022/08/02 03:39:03;;;;;;;3.63;1.52;;;;;;;12.38;100.00;101625.66;6271814;28;20041;-75
2022/08/02 03:42:05;;;;;;;1.50;1.20;;;;;;;12.29;100.00;101633.97;6271037;28;20055;-74
2022/08/02 03:45:09;;;;;;;2.88;1.45;;;;;;;12.27;100.00;101635.00;6271227;28;20045;-74
2022/08/02 03:48:14;;;;;;;2.25;1.40;;;;;;;12.25;100.00;101644.75;6271123;28;20075;-74
2022/08/02 03:51:16;;;;;;;1.55;1.17;;;;;;;12.21;100.00;101643.16;6271255;28;20424;-74
2022/08/02 03:54:17;;;;;;;3.40;1.83;;;;;;;12.20;100.00;101639.69;6270903;28;20049;-73
2022/08/02 03:57:19;;;;;;;1.73;1.63;;;;;;;12.19;100.00;101640.63;6271372;28;20055;-74
2022/08/02 04:00:22;;;;;;;6.97;1.50;;;;;;;12.14;100.00;101642.59;6271100;28;20053;-75
2022/08/02 04:03:25;;;;;;;5.15;1.70;;;;;;;12.14;100.00;101634.69;6270899;28;20528;-75
2022/08/02 04:06:26;;;;;;;5.18;1.90;;;;;;;12.09;100.00;101628.78;6270800;28;20493;-74
2022/08/02 04:09:28;;;;;;;2.17;1.52;;;;;;;12.09;100.00;101632.28;6270989;28;20049;-74
2022/08/02 04:12:29;;;;;;;2.25;1.63;;;;;;;12.08;100.00;101632.31;6276533;28;20052;-74
2022/08/02 04:15:30;;;;;;;4.50;1.70;;;;;;;12.08;100.00;101632.31;6299793;28;20506;-74
2022/08/02 04:18:45;;;;;;;2.20;1.52;;;;;;;12.08;100.00;101632.31;6300700;28;20045;-74
2022/08/02 04:21:49;;;;;;;1.58;1.35;;;;;;;12.09;100.00;101629.66;6299782;28;20049;-74
2022/08/02 04:24:54;;;;;;;6.65;1.85;;;;;;;12.15;100.00;101616.19;6300346;28;20048;-74
2022/08/02 04:27:55;;;;;;;6.40;1.70;;;;;;;12.18;100.00;101623.09;6299942;28;20052;-74
2022/08/02 04:30:58;;;;;;;3.53;1.80;;;;;;;12.19;100.00;101630.06;6299514;28;20408;-74
2022/08/02 04:34:01;;;;;;;5.15;1.58;;;;;;;12.21;100.00;101635.25;6299117;28;20049;-74
2022/08/02 04:37:03;;;;;;;7.00;2.13;;;;;;;12.26;100.00;101634.13;6298852;28;20676;-74
2022/08/02 04:40:09;;;;;;;3.50;1.55;;;;;;;12.26;100.00;101635.91;6298227;28;20044;-74
2022/08/02 04:43:10;;;;;;;3.45;1.90;;;;;;;12.28;100.00;101640.19;6296232;28;20054;-74
2022/08/02 04:46:12;;;;;;;4.72;1.80;;;;;;;12.32;100.00;101641.75;6298188;28;20047;-74
2022/08/02 04:49:14;;;;;;;3.15;2.13;;;;;;;12.38;100.00;101641.47;6298117;28;20492;-74
2022/08/02 04:52:16;;;;;;;2.97;1.75;;;;;;;12.45;100.00;101639.41;6298966;28;20056;-74
2022/08/02 04:55:17;;;;;;;2.78;1.65;;;;;;;12.51;100.00;101628.56;6299581;28;20051;-74
2022/08/02 04:58:18;;;;;;;4.65;1.50;;;;;;;12.57;100.00;101627.41;6299746;28;20056;-74
2022/08/02 05:01:20;;;;;;;2.72;1.95;;;;;;;12.60;100.00;101624.66;6299647;28;20052;-74
2022/08/02 05:04:22;;;;;;;9.55;2.15;;;;;;;12.66;100.00;101626.97;6299468;28;20044;-74
2022/08/02 05:07:24;;;;;;;1.80;1.35;;;;;;;12.69;100.00;101630.34;6299459;28;20055;-74
2022/08/02 05:10:25;;;;;;;5.28;1.80;;;;;;;12.74;100.00;101631.91;6299401;28;20052;-74
2022/08/02 05:13:26;;;;;;;3.55;1.60;;;;;;;12.76;100.00;101638.78;6299300;28;20484;-74
2022/08/02 05:16:28;;;;;;;2.63;1.60;;;;;;;12.81;100.00;101639.44;6299259;28;20048;-74
2022/08/02 05:19:31;;;;;;;4.93;1.67;;;;;;;12.82;100.00;101627.13;6297754;28;20045;-74
2022/08/02 05:22:33;;;;;;;1.60;1.35;;;;;;;12.85;100.00;101637.50;6291617;28;20059;-74
2022/08/02 05:25:34;;;;;;;4.63;1.50;;;;;;;12.87;100.00;101633.88;6297255;28;20392;-74
2022/08/02 05:28:35;;;;;;;4.15;1.60;;;;;;;12.91;100.00;101630.16;6297229;28;20052;-74
2022/08/02 05:31:37;;;;;;;2.28;1.30;;;;;;;12.97;100.00;101633.41;6297226;28;20044;-74
2022/08/02 05:34:40;;;;;;;1.65;1.20;;;;;;;13.02;100.00;101628.75;6296917;28;20041;-74
2022/08/02 05:37:41;;;;;;;2.28;1.30;;;;;;;13.08;100.00;101636.38;6297240;28;20049;-74
2022/08/02 05:40:43;;;;;;;1.33;0.85;;;;;;;13.15;100.00;101641.28;6296988;28;20293;-74
2022/08/02 05:43:44;;;;;;;4.38;1.40;;;;;;;13.22;100.00;101628.66;6297157;28;20059;-74
2022/08/02 05:46:46;;;;;;;5.03;1.40;;;;;;;13.26;100.00;101622.28;6296833;28;20512;-74
2022/08/02 05:49:48;;;;;;;5.90;1.40;;;;;;;13.32;100.00;101624.63;6296844;28;20048;-74
2022/08/02 05:52:56;;;;;;;3.33;1.00;;;;;;;13.37;100.00;101622.59;6298439;28;20052;-74
2022/08/02 05:56:04;;;;;;;6.40;1.48;;;;;;;13.43;100.00;101622.28;6293608;28;20055;-73
2022/08/02 05:59:13;;;;;;;3.30;1.10;;;;;;;13.50;100.00;101628.13;6298114;28;20147;-76
2022/08/02 06:02:25;;;;;;;1.40;1.20;;;;;;;13.56;100.00;101630.44;6297936;28;20044;-74
2022/08/02 06:05:34;;;;;;;3.40;1.20;;;;;;;13.63;100.00;101636.25;6298062;28;20484;-73
2022/08/02 06:08:39;;;;;;;2.70;1.02;;;;;;;13.67;100.00;101629.88;6298098;28;20062;-72
2022/08/02 06:11:45;;;;;;;4.78;1.10;;;;;;;13.71;100.00;101628.78;6306062;28;20037;-73
2022/08/02 06:14:47;;;;;;;3.78;1.17;;;;;;;13.78;100.00;101637.25;6308878;28;20052;-75
2022/08/02 06:17:48;;;;;;;3.58;0.98;;;;;;;13.84;100.00;101635.13;6301950;28;20040;-72
2022/08/02 06:20:51;;;;;;;1.83;1.23;;;;;;;13.92;100.00;101642.66;6304246;28;20048;-73
2022/08/02 06:23:53;;;;;;;6.20;1.20;;;;;;;13.98;100.00;101641.47;6307554;28;20053;-73
2022/08/02 06:26:56;;;;;;;3.53;2.20;;;;;;;14.02;100.00;101641.22;6304058;28;20052;-72
2022/08/02 06:29:57;;;;;;;4.20;1.05;;;;;;;14.12;100.00;101636.28;6305223;28;20083;-74
2022/08/02 06:32:59;;;;;;;5.07;1.13;;;;;;;14.19;100.00;101637.69;6286874;28;20504;-73
2022/08/02 06:36:04;;;;;;;3.05;1.15;;;;;;;14.28;100.00;101634.53;6305427;28;20043;-73
2022/08/02 06:39:09;;;;;;;4.15;0.90;;;;;;;14.34;100.00;101630.69;6319961;28;20078;-73
2022/08/02 06:42:15;;;;;;;2.83;1.05;;;;;;;14.35;100.00;101635.91;6319207;28;20044;-72
2022/08/02 06:45:17;;;;;;;1.75;1.05;;;;;;;14.39;100.00;101624.22;6293978;28;20534;-73
2022/08/02 06:48:18;;;;;;;4.55;1.15;;;;;;;14.42;100.00;101629.34;6295310;28;20041;-74
2022/08/02 06:51:21;;;;;;;1.20;0.88;;;;;;;14.51;100.00;101617.44;6296479;28;20055;-73
2022/08/02 06:54:23;;;;;;;4.22;2.13;;;;;;;14.60;100.00;101608.13;6293800;28;20048;-73
2022/08/02 06:57:24;;;;;;;2.03;0.80;;;;;;;14.66;100.00;101605.97;6300798;28;20419;-73
2022/08/02 07:00:26;;;;;;;4.00;1.48;;;;;;;14.74;100.00;101592.31;6304966;28;20055;-72
2022/08/02 07:03:28;;;;;;;3.30;1.20;;;;;;;14.84;100.00;101598.78;6294874;28;20052;-73
2022/08/02 07:06:31;;;;;;;4.72;1.45;;;;;;;14.91;100.00;101600.16;6296599;28;20090;-73
2022/08/02 07:09:32;;;;;;;1.30;1.05;;;;;;;14.97;100.00;101598.94;6296540;28;20044;-73
2022/08/02 07:12:34;;;;;;;2.05;0.95;;;;;;;15.06;100.00;101602.84;6288791;28;20052;-74
2022/08/02 07:15:36;;;;;;;1.55;1.17;;;;;;;15.21;100.00;101601.94;6311674;28;20051;-74
2022/08/02 07:18:38;;;;;;;4.05;1.23;;;;;;;15.32;100.00;101606.63;6301400;28;20048;-74
2022/08/02 07:21:40;;;;;;;4.20;1.85;;;;;;;15.43;100.00;101601.50;6282121;28;20049;-74
2022/08/02 07:24:42;;;;;;;1.23;1.10;;;;;;;15.51;100.00;101598.41;6271333;28;20131;-74
2022/08/02 07:27:43;;;;;;;1.95;1.23;;;;;;;15.59;100.00;101599.66;6271208;28;20516;-73
2022/08/02 07:30:44;;;;;;;7.13;1.35;;;;;;;15.60;100.00;101603.16;6289208;28;20059;-74
2022/08/02 07:33:46;;;;;;;2.42;1.20;;;;;;;15.63;100.00;101601.16;6295809;28;20049;-74
2022/08/02 07:36:48;;;;;;;1.98;0.90;;;;;;;15.66;100.00;101606.28;6295118;28;20044;-75
2022/08/02 07:39:50;;;;;;;5.20;1.38;;;;;;;15.72;100.00;101613.03;6294397;28;20099;-74
2022/08/02 07:42:53;;;;;;;4.82;1.52;;;;;;;15.86;100.00;101617.50;6295112;28;20492;-75
2022/08/02 07:45:55;;;;;;;3.53;1.58;;;;;;;15.96;100.00;101614.19;6295345;28;20048;-74
2022/08/02 07:48:56;;;;;;;3.40;1.70;;;;;;;15.96;100.00;101606.22;6300010;28;20466;-74
2022/08/02 07:51:59;;;;;;;4.28;1.45;;;;;;;16.03;100.00;101605.81;6300573;28;20053;-74
2022/08/02 07:55:00;;;;;;;5.78;1.92;;;;;;;16.08;100.00;101594.00;6301028;28;20071;-74
2022/08/02 07:58:01;;;;;;;7.47;1.95;;;;;;;16.18;100.00;101592.47;6301177;28;20056;-75
2022/08/02 08:01:03;;;;;;;1.60;1.45;;;;;;;16.27;100.00;101582.22;6301034;28;20102;-74
2022/08/02 08:04:04;;;;;;;4.20;1.23;;;;;;;16.36;100.00;101584.28;6300845;28;20049;-75
2022/08/02 08:07:09;;;;;;;5.32;1.65;;;;;;;16.46;100.00;101572.13;6300652;28;20051;-74
2022/08/02 08:10:11;;;;;;;5.40;1.75;;;;;;;16.52;100.00;101560.25;6300989;28;20058;-74
2022/08/02 08:13:12;;;;;;;2.00;1.40;;;;;;;16.60;100.00;101556.16;6300466;28;20400;-73
2022/08/02 08:16:13;;;;;;;7.32;2.60;;;;;;;16.64;100.00;101562.97;6300419;28;20055;-75
2022/08/02 08:19:15;;;;;;;3.25;1.33;;;;;;;16.72;100.00;101557.19;6300536;28;20098;-74
2022/08/02 08:22:17;;;;;;;3.15;1.40;;;;;;;16.76;100.00;101545.44;6300434;28;20052;-73
2022/08/02 08:25:19;;;;;;;3.75;1.50;;;;;;;16.85;100.00;101546.59;6300172;28;20048;-74
2022/08/02 08:28:23;;;;;;;5.10;1.77;;;;;;;16.88;100.00;101549.06;6300117;28;20071;-74
2022/08/02 08:31:24;;;;;;;4.18;1.33;;;;;;;16.93;100.00;101549.59;6299673;28;20048;-73
2022/08/02 08:34:29;;;;;;;2.85;1.00;;;;;;;17.01;100.00;101539.31;6299788;28;20424;-74
2022/08/02 08:37:34;;;;;;;4.68;1.50;;;;;;;17.28;100.00;101535.72;6300089;28;20194;-74
2022/08/02 08:40:37;;;;;;;2.30;1.25;;;;;;;17.44;100.00;101539.88;6299962;28;20179;-74
2022/08/02 08:43:38;;;;;;;3.25;1.13;;;;;;;17.52;100.00;101534.00;6299944;28;20052;-73
2022/08/02 08:46:42;;;;;;;3.70;1.45;;;;;;;17.66;100.00;101536.53;6299452;28;20044;-73
2022/08/02 08:49:47;;;;;;;3.08;1.52;;;;;;;17.74;100.00;101533.38;6299788;28;20055;-74
2022/08/02 08:52:57;;;;;;;3.90;1.48;;;;;;;17.90;100.00;101533.16;6299596;28;20059;-74
2022/08/02 08:55:59;;;;;;;3.95;1.02;;;;;;;18.04;100.00;101533.00;6299660;28;20049;-74
2022/08/02 08:59:02;;;;;;;4.55;1.88;;;;;;;18.15;98.04;101529.56;6298791;28;20056;-73
2022/08/02 09:02:04;;;;;;;5.03;1.60;;;;;;;18.20;96.20;101530.94;6299693;28;20051;-73
2022/08/02 09:05:09;;;;;;;3.65;1.73;;;;;;;18.29;97.29;101533.88;6299081;28;20052;-73
2022/08/02 09:08:12;;;;;;;4.80;1.48;;;;;;;18.30;96.76;101530.25;6300496;28;20044;-73
2022/08/02 09:11:15;;;;;;;5.72;1.60;;;;;;;18.39;94.50;101535.75;6299296;28;20423;-74
2022/08/02 09:14:27;;;;;;;4.95;1.30;;;;;;;18.58;90.95;101529.94;6299114;28;20044;-73
2022/08/02 09:17:28;;;;;;;2.67;1.30;;;;;;;18.82;85.88;101529.94;6298823;28;20052;-73
2022/08/02 09:20:30;;;;;;;2.20;1.15;;;;;;;18.97;86.00;101528.75;6299046;28;20052;-74
2022/08/02 09:23:38;;;;;;;1.75;0.90;;;;;;;19.14;83.05;101535.47;6299054;28;20488;-73
2022/08/02 09:26:39;;;;;;;2.72;1.10;;;;;;;19.12;83.53;101526.75;6298850;28;20385;-73
2022/08/02 09:29:41;;;;;;;3.67;1.60;;;;;;;19.19;83.91;101525.28;6298565;28;20523;-73
2022/08/02 09:32:47;;;;;;;2.95;1.13;;;;;;;19.14;85.43;101523.97;6298919;28;20045;-73
2022/08/02 09:35:48;;;;;;;2.00;1.20;;;;;;;19.20;82.08;101513.66;6298576;28;20048;-74
2022/08/02 09:38:56;;;;;;;1.85;0.98;;;;;;;19.24;82.91;101512.47;6298847;28;20049;-73
2022/08/02 09:42:09;;;;;;;4.57;1.30;;;;;;;19.33;81.01;101518.91;6298786;28;20048;-73
2022/08/02 09:45:11;;;;;;;1.88;0.80;;;;;;;19.44;73.50;101510.03;6298450;28;20045;-73
2022/08/02 09:48:12;;;;;;;0.98;0.70;;;;;;;19.57;71.92;101531.25;6298556;28;20052;-73
2022/08/02 09:51:17;;;;;;;2.97;1.40;;;;;;;19.62;73.23;101527.31;6298201;28;20053;-75
2022/08/02 09:54:22;;;;;;;6.20;1.23;;;;;;;19.76;74.20;101523.56;6298331;28;20393;-76
2022/08/02 09:57:29;;;;;;;1.52;0.80;;;;;;;19.80;73.90;101526.81;6298378;28;20048;-76
2022/08/02 10:00:30;;;;;;;2.83;1.10;;;;;;;19.84;78.58;101523.78;6298500;28;20048;-76
2022/08/02 10:03:32;;;;;;;2.90;1.02;;;;;;;19.87;79.28;101510.19;6294773;28;20041;-75
2022/08/02 10:06:34;;;;;;;1.23;1.05;;;;;;;19.91;77.12;101513.47;6289034;28;20050;-75
2022/08/02 10:09:37;;;;;;;4.60;1.40;;;;;;;19.95;77.94;101512.25;6275042;28;20049;-74
2022/08/02 10:12:38;;;;;;;3.83;1.95;;;;;;;20.10;76.34;101508.34;6283521;28;20048;-73
2022/08/02 10:15:40;;;;;;;2.08;1.30;;;;;;;20.12;77.67;101510.88;6285252;28;20044;-73
2022/08/02 10:18:41;;;;;;;2.70;0.95;;;;;;;20.11;76.79;101506.50;6308437;28;20047;-73
2022/08/02 10:21:45;;;;;;;2.60;1.25;;;;;;;20.23;76.82;101503.69;6297468;28;20451;-73
2022/08/02 10:24:49;;;;;;;1.35;1.25;;;;;;;20.25;77.79;101504.41;6292569;28;20061;-75
2022/08/02 10:27:51;;;;;;;1.65;1.20;;;;;;;20.31;75.15;101500.41;6314102;28;20109;-73
2022/08/02 10:30:55;;;;;;;1.85;1.00;;;;;;;20.38;75.62;101504.25;6322311;28;20560;-74
2022/08/02 10:33:59;;;;;;;1.92;1.10;;;;;;;20.66;73.64;101504.66;6322575;28;20059;-73
2022/08/02 10:37:02;;;;;;;1.30;0.90;;;;;;;20.69;72.73;101499.91;6322523;28;20040;-74
2022/08/02 10:40:21;;;;;;;2.92;1.45;;;;;;;20.69;71.31;101497.22;6322180;28;20056;-74
2022/08/02 10:43:41;;;;;;;1.13;1.02;;;;;;;20.87;69.02;101486.81;6322656;28;20052;-74
2022/08/02 10:46:43;;;;;;;1.63;0.82;;;;;;;20.98;66.15;101492.09;6322152;28;20051;-73
2022/08/02 10:49:49;;;;;;;1.35;0.77;;;;;;;21.03;67.35;101497.06;6308894;28;20052;-75
2022/08/02 10:53:22;;;;;;;0.98;0.88;;;;;;;21.14;65.93;101505.00;6285328;28;20051;-74
2022/08/02 10:56:45;;;;;;;0.63;0.63;;;;;;;21.11;66.90;101501.72;6303396;28;20036;-73
2022/08/02 10:59:47;;;;;;;1.45;0.90;;;;;;;21.17;65.08;101496.72;6292920;28;20071;-72
2022/08/02 11:02:49;;;;;;;2.65;0.80;;;;;;;21.28;67.44;101485.94;6296948;28;20052;-73
2022/08/02 11:06:01;;;;;;;1.60;0.80;;;;;;;21.48;66.09;101489.59;6298046;28;20047;-74
2022/08/02 11:09:30;;;;;;;4.28;0.90;;;;;;;21.68;64.06;101486.97;6272057;28;20052;-72
2022/08/02 11:12:32;;;;;;;1.02;0.60;;;;;;;21.78;64.61;101488.69;6271723;28;20056;-72
2022/08/02 11:15:54;;;;;;;0.80;0.80;;;;;;;21.85;63.24;101478.28;6271707;28;20484;-73
2022/08/02 11:19:07;;;;;;;4.03;1.08;;;;;;;22.01;62.99;101473.25;6272430;28;20421;-74
2022/08/02 11:22:11;;;;;;;2.20;0.70;;;;;;;22.12;66.13;101464.28;6271280;28;20416;-73
2022/08/02 11:25:33;;;;;;;10.00;0.80;;;;;;;22.44;61.87;101471.22;6271247;28;20513;-74
2022/08/02 11:28:34;;;;;;;3.72;0.90;;;;;;;22.58;61.15;101465.44;6271325;28;20049;-72
2022/08/02 11:31:41;;;;;;;1.48;0.77;;;;;;;22.73;61.78;101463.97;6271863;28;20397;-73
2022/08/02 11:34:45;;;;;;;1.00;0.70;;;;;;;22.89;62.04;101465.22;6271647;28;20492;-74
2022/08/02 11:37:47;;;;;;;1.17;0.88;;;;;;;23.12;59.77;101471.13;6271618;28;20076;-74
2022/08/02 11:40:49;;;;;;;0.65;0.65;;;;;;;23.35;63.07;101464.44;6271285;28;20053;-74
2022/08/02 11:43:54;;;;;;;1.77;0.80;;;;;;;23.55;60.63;101451.75;6271451;28;20053;-74
2022/08/02 11:46:56;;;;;;;2.42;1.40;;;;;;;23.69;58.87;101440.53;6271778;28;20503;-74
2022/08/02 11:50:04;;;;;;;4.05;0.82;;;;;;;23.65;59.75;101435.63;6270973;28;20063;-74
2022/08/02 11:53:16;;;;;;;5.50;0.63;;;;;;;23.54;59.09;101442.88;6271517;28;20045;-74
2022/08/02 11:56:26;;;;;;;3.25;1.23;;;;;;;23.57;59.65;101438.19;6271282;28;20045;-74
2022/08/02 11:59:27;;;;;;;3.30;1.40;;;;;;;23.60;60.07;101428.00;6291152;28;20048;-75
2022/08/02 12:02:31;;;;;;;1.00;0.80;;;;;;;23.75;63.03;101447.13;6295958;28;20049;-73
2022/08/02 12:05:33;;;;;;;1.23;0.82;;;;;;;23.87;61.34;101437.91;6296371;28;20488;-74
2022/08/02 12:08:37;;;;;;;0.82;0.75;;;;;;;24.07;60.63;101432.38;6296448;28;20052;-74
2022/08/02 12:11:41;;;;;;;5.18;1.00;;;;;;;24.12;58.04;101425.56;6294233;28;20041;-76
2022/08/02 12:14:43;;;;;;;1.58;0.93;;;;;;;24.19;58.88;101426.63;6305345;28;20067;-75
2022/08/02 12:21:22;;;;;;;3.67;1.20;;;;;;;24.66;57.51;101412.91;6295758;28;20049;-74
2022/08/02 12:24:29;;;;;;;1.58;1.17;;;;;;;24.94;56.72;101413.63;6296162;28;20044;-72
2022/08/02 12:27:34;;;;;;;1.77;1.02;;;;;;;24.98;56.49;101417.69;6297092;28;20424;-76
2022/08/02 12:30:49;;;;;;;1.50;1.15;;;;;;;25.22;57.73;101413.47;6296201;28;20048;-74
2022/08/02 12:33:52;;;;;;;1.70;1.20;;;;;;;25.41;57.94;101412.38;6298072;28;20075;-74
2022/08/02 12:37:01;;;;;;;2.55;0.90;;;;;;;25.40;57.47;101394.53;6301051;28;20041;-75
2022/08/02 12:40:20;;;;;;;1.95;1.17;;;;;;;25.65;57.81;101395.44;6299940;28;20049;-75
2022/08/02 12:43:24;;;;;;;1.45;0.98;;;;;;;25.99;57.81;101395.38;6300337;28;20051;-74
2022/08/02 12:46:25;;;;;;;2.08;1.23;;;;;;;26.21;55.13;101385.78;6296060;28;20047;-75
2022/08/02 12:49:26;;;;;;;2.55;1.63;;;;;;;26.58;53.50;101397.94;6316751;28;20422;-73
2022/08/02 12:52:28;;;;;;;1.27;0.73;;;;;;;26.63;52.23;101388.31;6298927;28;20056;-73
2022/08/02 12:55:29;;;;;;;2.88;1.00;;;;;;;26.47;51.53;101380.22;6274338;28;20049;-74
2022/08/02 12:58:47;;;;;;;2.85;1.00;;;;;;;26.65;51.18;101375.47;6311915;28;20423;-73
2022/08/02 13:01:49;;;;;;;2.50;0.93;;;;;;;26.56;52.85;101371.97;6324880;28;20056;-75
2022/08/02 13:04:50;;;;;;;2.22;1.00;;;;;;;26.72;52.86;101375.66;6324597;28;20051;-74
2022/08/02 13:07:52;;;;;;;1.65;0.75;;;;;;;26.75;53.90;101369.91;6325323;28;20068;-75
2022/08/02 13:10:53;;;;;;;1.10;0.80;;;;;;;26.78;54.02;101372.25;6324681;28;20668;-72
2022/08/02 13:13:56;;;;;;;1.25;0.70;;;;;;;26.90;51.55;101361.97;6324797;28;20055;-75
2022/08/02 13:16:57;;;;;;;1.35;1.05;;;;;;;26.78;53.29;101359.63;6324470;28;20056;-74
2022/08/02 13:19:59;;;;;;;1.40;1.20;;;;;;;27.03;52.22;101360.38;6324577;28;20048;-75
2022/08/02 13:23:00;;;;;;;1.63;1.13;;;;;;;27.06;50.25;101372.66;6324737;28;20055;-75
2022/08/02 13:26:02;;;;;;;0.70;0.70;;;;;;;27.10;50.41;101360.53;6324599;28;20040;-73
2022/08/02 13:29:05;;;;;;;1.45;1.00;;;;;;;26.84;49.88;101363.47;6324603;28;20487;-76
2022/08/02 13:32:06;;;;;;;1.75;1.10;;;;;;;26.76;51.30;101363.50;6324854;28;20527;-75
2022/08/02 13:35:08;;;;;;;1.80;0.80;;;;;;;26.93;51.72;101358.88;6324263;28;20059;-75
2022/08/02 13:38:10;;;;;;;1.13;1.05;;;;;;;27.12;51.62;101352.28;6323948;28;20048;-74
2022/08/02 13:41:12;;;;;;;1.00;0.80;;;;;;;27.14;51.28;101345.69;6324149;28;20051;-74
2022/08/02 13:44:15;;;;;;;0.85;0.85;;;;;;;27.02;50.56;101350.59;6323777;28;20055;-75
2022/08/02 13:47:16;;;;;;;1.25;1.05;;;;;;;26.63;51.38;101355.94;6324394;28;20055;-76
2022/08/02 13:50:17;;;;;;;1.00;0.80;;;;;;;26.45;52.76;101348.06;6323298;28;20062;-78
2022/08/02 13:53:19;;;;;;;1.02;0.95;;;;;;;26.74;51.97;101341.25;6323715;28;20044;-75
2022/08/02 13:56:20;;;;;;;0.93;0.85;;;;;;;26.72;50.75;101340.59;6323015;28;20047;-75
2022/08/02 13:59:23;;;;;;;1.40;0.88;;;;;;;26.90;51.44;101349.31;6323660;28;20051;-72
2022/08/02 14:02:24;;;;;;;1.83;0.90;;;;;;;26.92;49.70;101333.78;6323271;28;20487;-74
2022/08/02 14:05:29;;;;;;;2.83;0.85;;;;;;;27.12;50.33;101325.31;6322905;28;20048;-72
2022/08/02 14:08:30;;;;;;;1.70;0.93;;;;;;;27.28;50.86;101328.75;6323199;28;20075;-73
2022/08/02 14:11:31;;;;;;;1.90;1.23;;;;;;;27.33;48.95;101321.97;6321350;28;20050;-74
2022/08/02 14:14:34;;;;;;;1.65;1.20;;;;;;;27.25;50.20;101321.03;6322986;28;20060;-73